createdAt,value
2018-01-15T00:02:21.111Z,60.30
2018-01-15T00:04:58.212Z,60.20
2018-01-15T00:07:26.551Z,60.40
2018-01-15T00:09:54.626Z,60.30
2018-01-15T00:12:22.700Z,60.10
2018-01-15T00:14:51.068Z,59.60
2018-01-15T00:17:19.147Z,59.70
2018-01-15T00:19:47.216Z,59.40
2018-01-15T00:22:15.281Z,58.50
2018-01-15T00:24:43.358Z,60.00
2018-01-15T00:27:11.431Z,60.30
2018-01-15T00:29:39.515Z,60.50
2018-01-15T00:32:07.580Z,60.40
2018-01-15T00:34:35.652Z,60.80
2018-01-15T00:37:03.722Z,60.80
2018-01-15T00:39:31.790Z,60.80
2018-01-15T00:41:59.854Z,61.00
2018-01-15T00:44:27.918Z,60.70
2018-01-15T00:46:55.992Z,60.90
2018-01-15T00:49:24.082Z,60.80
2018-01-15T00:51:52.149Z,60.70
2018-01-15T00:54:20.214Z,60.30
2018-01-15T00:56:48.291Z,60.80
2018-01-15T00:59:16.371Z,60.90
2018-01-15T01:01:44.442Z,60.90
2018-01-15T01:04:12.515Z,60.70
2018-01-15T01:06:40.599Z,61.40
2018-01-15T01:09:08.674Z,62.30
2018-01-15T01:11:36.732Z,62.20
2018-01-15T01:14:04.802Z,61.90
2018-01-15T01:16:32.868Z,61.60
2018-01-15T01:19:00.943Z,61.20
2018-01-15T01:21:29.019Z,61.40
2018-01-15T01:23:57.085Z,61.10
2018-01-15T01:26:25.153Z,62.00
2018-01-15T01:28:53.226Z,62.40
2018-01-15T01:31:21.303Z,62.30
2018-01-15T01:33:49.370Z,62.40
2018-01-15T01:36:17.457Z,62.50
2018-01-15T01:38:46.310Z,62.00
2018-01-15T01:41:14.391Z,62.00
2018-01-15T01:43:42.458Z,62.10
2018-01-15T01:46:10.535Z,61.40
2018-01-15T01:48:38.605Z,61.50
2018-01-15T01:51:06.680Z,61.40
2018-01-15T01:53:34.754Z,61.40
2018-01-15T01:56:02.825Z,61.70
2018-01-15T01:58:30.887Z,61.40
2018-01-15T02:00:58.949Z,62.40
2018-01-15T02:03:27.025Z,62.50
2018-01-15T02:05:55.089Z,62.50
2018-01-15T02:08:23.155Z,62.30
2018-01-15T02:10:51.226Z,62.10
2018-01-15T02:13:19.299Z,62.60
2018-01-15T02:15:47.366Z,62.90
2018-01-15T02:18:15.443Z,63.00
2018-01-15T02:20:43.615Z,63.40
2018-01-15T02:23:11.691Z,63.70
2018-01-15T02:25:39.768Z,63.30
2018-01-15T02:28:07.826Z,63.30
2018-01-15T02:30:35.902Z,63.60
2018-01-15T02:33:04.011Z,63.20
2018-01-15T02:35:32.851Z,63.00
2018-01-15T02:38:00.922Z,63.00
2018-01-15T02:40:28.999Z,62.20
2018-01-15T02:42:57.062Z,62.10
2018-01-15T02:45:25.162Z,62.00
2018-01-15T02:47:53.234Z,62.00
2018-01-15T02:50:21.303Z,61.90
2018-01-15T02:52:50.234Z,62.60
2018-01-15T02:55:18.306Z,61.80
2018-01-15T02:57:46.376Z,62.00
2018-01-15T03:00:14.450Z,61.80
2018-01-15T03:02:42.516Z,61.60
2018-01-15T03:05:10.578Z,61.00
2018-01-15T03:07:38.659Z,60.80
2018-01-15T03:10:06.741Z,60.90
2018-01-15T03:12:34.805Z,60.30
2018-01-15T03:15:02.875Z,60.20
2018-01-15T03:17:30.950Z,60.50
2018-01-15T03:19:59.018Z,60.60
2018-01-15T03:22:27.095Z,61.00
2018-01-15T03:24:55.156Z,61.00
2018-01-15T03:27:23.218Z,60.60
2018-01-15T03:29:51.593Z,60.50
2018-01-15T03:32:19.668Z,60.40
2018-01-15T03:34:47.743Z,60.50
2018-01-15T03:37:15.803Z,61.00
2018-01-15T03:39:43.875Z,61.00
2018-01-15T03:42:11.947Z,61.40
2018-01-15T03:44:40.026Z,61.50
2018-01-15T03:47:08.094Z,61.70
2018-01-15T03:49:36.174Z,61.90
2018-01-15T03:52:04.246Z,62.00
2018-01-15T03:54:32.319Z,61.90
2018-01-15T03:57:00.391Z,61.80
2018-01-15T03:59:28.470Z,62.30
2018-01-15T04:01:56.599Z,61.80
2018-01-15T04:04:24.666Z,61.60
2018-01-15T04:06:52.739Z,61.60
2018-01-15T04:09:20.807Z,61.70
2018-01-15T04:11:48.875Z,61.70
2018-01-15T04:14:17.716Z,62.20
2018-01-15T04:16:45.782Z,62.10
2018-01-15T04:19:13.871Z,62.90
2018-01-15T04:21:41.935Z,62.70
2018-01-15T04:24:10.037Z,62.20
2018-01-15T04:26:38.876Z,61.80
2018-01-15T04:29:06.945Z,61.80
2018-01-15T04:31:35.024Z,61.50
2018-01-15T04:34:03.078Z,61.20
2018-01-15T04:36:31.146Z,61.20
2018-01-15T04:38:59.211Z,61.20
2018-01-15T04:41:27.282Z,60.60
2018-01-15T04:43:55.353Z,60.90
2018-01-15T04:46:23.427Z,61.10
2018-01-15T04:48:51.495Z,61.00
2018-01-15T04:51:19.562Z,61.60
2018-01-15T04:53:47.630Z,61.60
2018-01-15T04:56:15.710Z,61.20
2018-01-15T04:58:43.774Z,60.70
2018-01-15T05:01:11.850Z,60.40
2018-01-15T05:03:39.922Z,60.40
2018-01-15T05:06:07.990Z,60.40
2018-01-15T05:08:36.054Z,60.60
2018-01-15T05:11:04.131Z,60.20
2018-01-15T05:13:32.194Z,59.80
2018-01-15T05:16:00.263Z,59.80
2018-01-15T05:18:28.339Z,60.20
2018-01-15T05:20:56.410Z,60.90
2018-01-15T05:23:24.482Z,61.60
2018-01-15T05:25:52.553Z,61.70
2018-01-15T05:28:20.622Z,61.50
2018-01-15T05:30:48.694Z,61.80
2018-01-15T05:33:16.758Z,62.10
2018-01-15T05:35:44.831Z,62.50
2018-01-15T05:38:12.910Z,62.30
2018-01-15T05:40:40.983Z,62.20
2018-01-15T05:43:09.053Z,62.00
2018-01-15T05:45:37.157Z,61.90
2018-01-15T05:48:05.242Z,61.50
2018-01-15T05:50:33.315Z,61.30
2018-01-15T05:53:02.150Z,62.50
2018-01-15T05:55:30.223Z,62.50
2018-01-15T05:57:58.297Z,62.10
2018-01-15T06:00:26.363Z,61.80
2018-01-15T06:02:54.426Z,62.50
2018-01-15T06:05:22.496Z,62.80
2018-01-15T06:07:50.575Z,63.30
2018-01-15T06:10:18.642Z,63.50
2018-01-15T06:12:46.706Z,63.60
2018-01-15T06:15:14.776Z,63.70
2018-01-15T06:17:42.843Z,64.20
2018-01-15T06:20:10.918Z,63.80
2018-01-15T06:22:38.983Z,64.20
2018-01-15T06:25:07.055Z,64.10
2018-01-15T06:27:35.119Z,64.70
2018-01-15T06:30:03.188Z,66.30
2018-01-15T06:32:31.253Z,66.00
2018-01-15T06:34:59.333Z,65.90
2018-01-15T06:37:27.389Z,66.40
2018-01-15T06:39:55.459Z,66.90
2018-01-15T06:42:23.558Z,66.80
2018-01-15T06:44:51.635Z,66.60
2018-01-15T06:47:19.706Z,66.00
2018-01-15T06:49:47.779Z,66.10
2018-01-15T06:52:15.851Z,66.40
2018-01-15T06:54:43.927Z,66.80
2018-01-15T06:57:11.999Z,67.70
2018-01-15T06:59:40.079Z,67.70
2018-01-15T07:02:08.155Z,67.60
2018-01-15T07:04:36.227Z,68.50
2018-01-15T07:07:04.318Z,68.50
2018-01-15T07:09:33.161Z,68.90
2018-01-15T07:12:01.242Z,68.80
2018-01-15T07:14:29.354Z,69.90
2018-01-15T07:16:58.208Z,71.60
2018-01-15T07:19:26.274Z,71.60
2018-01-15T07:21:54.354Z,72.00
2018-01-15T07:24:22.434Z,72.40
2018-01-15T07:26:50.510Z,72.10
2018-01-15T07:29:28.478Z,72.30
2018-01-15T07:31:56.550Z,72.90
2018-01-15T07:34:24.857Z,73.00
2018-01-15T07:36:53.792Z,73.20
2018-01-15T07:39:21.879Z,73.20
2018-01-15T07:41:50.011Z,73.10
2018-01-15T07:44:19.894Z,73.40
2018-01-15T07:46:47.996Z,73.40
2018-01-15T07:49:20.568Z,73.80
2018-01-15T07:51:48.982Z,73.80
2018-01-15T07:54:17.071Z,73.80
2018-01-15T07:56:45.150Z,74.50
2018-01-15T07:59:13.222Z,74.60
2018-01-15T08:01:41.306Z,74.60
2018-01-15T08:04:09.622Z,74.40
2018-01-15T08:06:37.702Z,74.10
2018-01-15T08:09:05.782Z,73.20
2018-01-15T08:11:33.862Z,73.00
2018-01-15T08:14:01.938Z,78.50
2018-01-15T08:16:30.003Z,76.80
2018-01-15T08:18:58.083Z,71.60
2018-01-15T08:21:26.923Z,72.50
2018-01-15T08:23:55.768Z,72.90
2018-01-15T08:26:23.834Z,72.80
2018-01-15T08:28:51.945Z,71.90
2018-01-15T08:31:20.003Z,71.20
2018-01-15T08:33:48.089Z,70.90
2018-01-15T08:36:16.925Z,71.50
2018-01-15T08:38:44.999Z,70.50
2018-01-15T08:41:13.076Z,70.20
2018-01-15T08:43:41.151Z,70.70
2018-01-15T08:46:09.217Z,70.30
2018-01-15T08:48:37.302Z,70.20
2018-01-15T08:51:05.376Z,70.30
2018-01-15T08:53:33.446Z,69.90
2018-01-15T08:56:01.515Z,69.20
2018-01-15T08:58:29.595Z,68.70
2018-01-15T09:00:57.697Z,67.90
2018-01-15T09:03:25.739Z,66.60
2018-01-15T09:05:53.814Z,66.20
2018-01-15T09:08:21.882Z,66.10
2018-01-15T09:10:49.962Z,65.70
2018-01-15T09:13:18.790Z,65.90
2018-01-15T09:15:46.858Z,65.40
2018-01-15T09:18:14.934Z,64.20
2018-01-15T09:20:43.106Z,64.00
2018-01-15T09:23:11.175Z,64.00
2018-01-15T09:25:39.247Z,63.70
2018-01-15T09:28:07.327Z,63.30
2018-01-15T09:30:35.394Z,62.80
2018-01-15T09:33:03.462Z,62.70
2018-01-15T09:35:31.538Z,62.20
2018-01-15T09:37:59.607Z,62.00
2018-01-15T09:40:27.678Z,61.60
2018-01-15T09:42:55.764Z,60.60
2018-01-15T09:45:23.825Z,61.00
2018-01-15T09:47:51.903Z,61.10
2018-01-15T09:50:19.974Z,60.90
2018-01-15T09:52:48.046Z,60.30
2018-01-15T09:55:16.114Z,59.80
2018-01-15T09:57:44.191Z,59.80
2018-01-15T10:00:12.263Z,59.70
2018-01-15T10:02:40.370Z,59.80
2018-01-15T10:05:09.301Z,59.40
2018-01-15T10:07:37.367Z,60.60
2018-01-15T10:10:05.437Z,59.40
2018-01-15T10:12:33.529Z,59.20
2018-01-15T10:15:01.587Z,59.00
2018-01-15T10:17:29.661Z,58.80
2018-01-15T10:19:57.733Z,57.90
2018-01-15T10:22:25.806Z,57.10
2018-01-15T10:24:53.892Z,56.60
2018-01-15T10:27:21.954Z,56.20
2018-01-15T10:29:50.934Z,55.80
2018-01-15T10:32:19.012Z,55.30
2018-01-15T10:34:47.086Z,54.60
2018-01-15T10:37:15.171Z,53.60
2018-01-15T10:39:43.236Z,52.70
2018-01-15T10:42:11.296Z,52.20
2018-01-15T10:44:39.366Z,52.00
2018-01-15T10:47:07.426Z,52.20
2018-01-15T10:49:35.506Z,51.10
2018-01-15T10:52:03.562Z,51.60
2018-01-15T10:54:31.641Z,51.10
2018-01-15T10:57:00.494Z,49.60
2018-01-15T10:59:28.562Z,49.70
2018-01-15T11:01:57.400Z,49.60
2018-01-15T11:04:25.475Z,49.50
2018-01-15T11:06:53.537Z,49.20
2018-01-15T11:09:21.678Z,49.20
2018-01-15T11:11:49.747Z,49.30
2018-01-15T11:14:17.805Z,48.10
2018-01-15T11:16:45.866Z,46.40
2018-01-15T11:19:14.729Z,47.00
2018-01-15T11:21:42.786Z,47.00
2018-01-15T11:24:10.846Z,46.50
2018-01-15T11:26:38.917Z,46.00
2018-01-15T11:29:07.886Z,44.10
2018-01-15T11:31:35.974Z,43.60
2018-01-15T11:34:04.038Z,42.40
2018-01-15T11:36:32.115Z,41.80
2018-01-15T11:39:00.203Z,41.20
2018-01-15T11:41:28.279Z,40.40
2018-01-15T11:43:56.349Z,41.10
2018-01-15T11:46:24.422Z,41.00
2018-01-15T11:48:52.514Z,40.00
2018-01-15T11:51:21.354Z,38.60
2018-01-15T11:53:49.431Z,38.60
2018-01-15T11:56:17.506Z,38.50
2018-01-15T11:58:45.586Z,38.10
2018-01-15T12:01:13.655Z,38.10
2018-01-15T12:03:41.731Z,37.10
2018-01-15T12:06:09.792Z,36.80
2018-01-15T12:08:38.142Z,35.60
2018-01-15T12:11:06.254Z,35.40
2018-01-15T12:13:34.320Z,36.10
2018-01-15T12:16:02.377Z,36.90
2018-01-15T12:18:30.449Z,36.00
2018-01-15T12:20:58.513Z,35.40
2018-01-15T12:23:26.587Z,34.60
2018-01-15T12:25:54.655Z,35.00
2018-01-15T12:28:22.726Z,34.30
2018-01-15T12:30:50.801Z,35.00
2018-01-15T12:33:18.867Z,34.70
2018-01-15T12:35:46.927Z,34.40
2018-01-15T12:38:15.019Z,34.80
2018-01-15T12:40:43.082Z,35.30
2018-01-15T12:43:11.156Z,34.40
2018-01-15T12:45:39.230Z,34.30
2018-01-15T12:48:07.310Z,34.10
2018-01-15T12:50:35.457Z,33.70
2018-01-15T12:53:03.530Z,33.40
2018-01-15T12:55:31.591Z,33.90
2018-01-15T12:57:59.664Z,34.60
2018-01-15T13:00:27.732Z,35.30
2018-01-15T13:02:55.806Z,36.20
2018-01-15T13:11:41.714Z,40.50
2018-01-15T13:14:09.788Z,41.70
2018-01-15T13:16:37.866Z,42.80
2018-01-15T13:19:05.937Z,43.10
2018-01-15T13:21:34.050Z,41.50
2018-01-15T13:24:02.127Z,38.40
2018-01-15T13:26:30.211Z,36.50
2018-01-15T13:28:59.130Z,32.80
2018-01-15T13:31:27.198Z,32.90
2018-01-15T13:33:55.282Z,30.40
2018-01-15T13:36:23.431Z,30.00
2018-01-15T13:38:51.500Z,30.00
2018-01-15T13:41:19.562Z,32.40
2018-01-15T13:43:48.394Z,34.90
2018-01-15T13:46:16.489Z,34.90
2018-01-15T13:48:44.564Z,37.30
2018-01-15T13:51:12.642Z,38.00
2018-01-15T13:53:40.751Z,37.90
2018-01-15T13:56:08.819Z,39.20
2018-01-15T13:58:37.279Z,40.00
2018-01-15T14:01:06.273Z,41.30
2018-01-15T14:03:34.354Z,41.30
2018-01-15T14:06:02.526Z,41.10
2018-01-15T14:08:30.688Z,39.90
2018-01-15T14:10:59.200Z,39.10
2018-01-15T14:13:27.297Z,39.70
2018-01-15T14:15:55.676Z,40.90
2018-01-15T14:18:23.822Z,41.50
2018-01-15T14:20:52.316Z,42.90
2018-01-15T14:23:20.576Z,44.40
2018-01-15T14:25:49.383Z,45.10
2018-01-15T14:28:20.486Z,45.10
2018-01-15T14:30:48.916Z,45.20
2018-01-15T14:33:16.994Z,46.40
2018-01-15T14:35:45.063Z,46.50
2018-01-15T14:38:13.350Z,46.90
2018-01-15T14:40:41.423Z,48.00
2018-01-15T14:43:09.578Z,48.60
2018-01-15T14:45:37.641Z,48.70
2018-01-15T14:48:05.703Z,48.60
2018-01-15T14:50:33.780Z,49.10
2018-01-15T14:53:01.846Z,50.00
2018-01-15T14:55:29.924Z,50.60
2018-01-15T14:57:57.990Z,51.30
2018-01-15T15:00:26.068Z,51.80
2018-01-15T15:02:54.133Z,52.30
2018-01-15T15:05:23.222Z,53.00
2018-01-15T15:07:51.286Z,53.10
2018-01-15T15:10:19.361Z,53.30
2018-01-15T15:12:47.435Z,53.70
2018-01-15T15:15:15.512Z,53.40
2018-01-15T15:17:43.578Z,53.10
2018-01-15T15:20:11.642Z,52.60
2018-01-15T15:22:39.703Z,52.70
2018-01-15T15:25:07.770Z,52.70
2018-01-15T15:27:35.838Z,52.90
2018-01-15T15:30:03.903Z,53.20
2018-01-15T15:32:31.982Z,53.30
2018-01-15T15:35:00.036Z,53.40
2018-01-15T15:37:28.102Z,53.50
2018-01-15T15:39:56.303Z,53.50
2018-01-15T15:42:24.470Z,54.20
2018-01-15T15:44:52.533Z,53.90
2018-01-15T15:47:20.607Z,53.30
2018-01-15T15:49:48.665Z,53.10
2018-01-15T15:52:16.730Z,53.90
2018-01-15T15:54:44.798Z,54.20
2018-01-15T15:57:12.866Z,54.00
2018-01-15T15:59:40.939Z,54.80
2018-01-15T16:02:09.767Z,55.30
2018-01-15T16:04:37.825Z,55.30
2018-01-15T16:07:05.903Z,55.10
2018-01-15T16:09:33.970Z,55.40
2018-01-15T16:12:02.034Z,55.60
2018-01-15T16:14:30.098Z,56.00
2018-01-15T16:16:58.175Z,55.90
2018-01-15T16:19:26.245Z,56.00
2018-01-15T16:25:01.478Z,55.50
2018-01-15T16:27:29.555Z,55.80
2018-01-15T16:29:57.631Z,56.20
2018-01-15T16:32:25.698Z,56.60
2018-01-15T16:34:53.766Z,56.80
2018-01-15T16:37:21.839Z,56.80
2018-01-15T16:39:49.902Z,57.20
2018-01-15T16:42:17.966Z,57.60
2018-01-15T16:44:46.805Z,57.50
2018-01-15T16:47:14.886Z,57.40
2018-01-15T16:49:43.057Z,57.50
2018-01-15T16:52:11.142Z,57.50
2018-01-15T16:54:39.204Z,57.90
2018-01-15T16:57:07.310Z,58.00
2018-01-15T16:59:35.424Z,58.30
2018-01-15T17:02:03.456Z,58.00
2018-01-15T17:04:31.549Z,58.30
2018-01-15T17:06:59.615Z,58.40
2018-01-15T17:09:28.733Z,58.50
2018-01-15T17:11:56.798Z,58.70
2018-01-15T17:14:24.897Z,58.70
2018-01-15T17:16:52.969Z,59.60
2018-01-15T17:19:21.035Z,58.80
2018-01-15T17:21:49.200Z,58.40
2018-01-15T17:24:17.390Z,57.90
2018-01-15T17:26:45.474Z,58.10
2018-01-15T17:29:15.223Z,59.00
2018-01-15T17:31:43.303Z,58.00
2018-01-15T17:34:11.361Z,58.00
2018-01-15T17:36:39.438Z,58.10
2018-01-15T17:39:07.502Z,58.00
2018-01-15T17:41:35.574Z,57.80
2018-01-15T17:44:04.409Z,57.10
2018-01-15T17:46:32.485Z,57.10
2018-01-15T17:49:00.551Z,56.30
2018-01-15T17:51:28.652Z,57.70
2018-01-15T17:53:56.721Z,58.40
2018-01-15T17:56:24.806Z,56.90
2018-01-15T17:58:52.870Z,56.60
2018-01-15T18:01:27.508Z,56.10
2018-01-15T18:03:57.513Z,57.20
2018-01-15T18:06:26.056Z,56.90
2018-01-15T18:08:54.118Z,57.50
2018-01-15T18:11:22.182Z,57.40
2018-01-15T18:13:52.211Z,57.20
2018-01-15T18:16:20.269Z,56.50
2018-01-15T18:18:48.342Z,56.60
2018-01-15T18:21:16.440Z,56.90
2018-01-15T18:23:46.700Z,56.80
2018-01-15T18:26:15.419Z,56.80
2018-01-15T18:28:43.515Z,56.60
2018-01-15T18:31:12.350Z,57.00
2018-01-15T18:33:40.426Z,57.00
2018-01-15T18:36:08.502Z,57.20
2018-01-15T18:38:36.579Z,56.70
2018-01-15T18:41:04.649Z,56.90
2018-01-15T18:43:32.730Z,56.60
2018-01-15T18:46:00.822Z,56.70
2018-01-15T18:48:28.883Z,56.70
2018-01-15T18:50:57.179Z,56.30
2018-01-15T18:53:26.019Z,57.10
2018-01-15T18:55:54.110Z,57.10
2018-01-15T18:58:22.171Z,56.90
2018-01-15T19:00:50.255Z,56.70
2018-01-15T19:03:18.327Z,56.60
2018-01-15T19:05:46.404Z,56.50
2018-01-15T19:08:14.479Z,56.50
2018-01-15T19:10:42.547Z,56.10
2018-01-15T19:13:10.619Z,57.40
2018-01-15T19:15:38.691Z,57.90
2018-01-15T19:18:06.772Z,55.60
2018-01-15T19:20:35.602Z,56.10
2018-01-15T19:23:04.601Z,56.10
2018-01-15T19:25:32.674Z,55.90
2018-01-15T19:28:00.751Z,56.60
2018-01-15T19:30:28.831Z,56.50
2018-01-15T19:32:56.898Z,56.70
2018-01-15T19:38:30.024Z,57.00
2018-01-15T19:40:58.081Z,57.30
2018-01-15T19:43:29.086Z,57.40
2018-01-15T19:46:02.787Z,57.30
2018-01-15T19:48:36.347Z,57.00
2018-01-15T19:51:10.022Z,57.60
2018-01-15T19:53:43.698Z,57.80
2018-01-15T19:56:17.379Z,58.30
2018-01-15T19:58:50.974Z,58.60
2018-01-15T20:01:24.565Z,58.50
2018-01-15T20:03:59.111Z,59.10
2018-01-15T20:09:38.130Z,59.60
2018-01-15T20:12:07.153Z,59.90
2018-01-15T20:14:35.259Z,59.90
2018-01-15T20:17:03.313Z,60.90
2018-01-15T20:19:31.386Z,59.10
2018-01-15T20:21:59.455Z,58.30
2018-01-15T20:24:27.526Z,58.50
2018-01-15T20:26:55.586Z,58.90
2018-01-15T20:29:23.654Z,58.40
2018-01-15T20:31:51.732Z,58.00
2018-01-15T20:34:19.795Z,57.70
2018-01-15T20:36:47.858Z,58.00
2018-01-15T20:39:15.945Z,57.80
2018-01-15T20:41:44.010Z,57.50
2018-01-15T20:44:12.075Z,57.00
2018-01-15T20:46:40.142Z,57.30
2018-01-15T20:49:08.206Z,57.10
2018-01-15T20:51:36.280Z,56.50
2018-01-15T20:54:04.336Z,56.60
2018-01-15T20:56:32.407Z,56.70
2018-01-15T20:59:00.474Z,56.80
2018-01-15T21:01:28.552Z,56.20
2018-01-15T21:03:56.631Z,56.00
2018-01-15T21:06:24.686Z,55.70
2018-01-15T21:08:52.764Z,55.70
2018-01-15T21:11:20.835Z,56.10
2018-01-15T21:13:48.893Z,55.90
2018-01-15T21:16:16.972Z,55.50
2018-01-15T21:18:45.028Z,55.40
2018-01-15T21:21:13.859Z,55.40
2018-01-15T21:23:41.935Z,55.40
2018-01-15T21:26:10.022Z,54.90
2018-01-15T21:28:38.082Z,55.10
2018-01-15T21:31:06.148Z,55.30
2018-01-15T21:33:34.217Z,55.20
2018-01-15T21:36:02.284Z,55.30
2018-01-15T21:38:30.352Z,55.30
2018-01-15T21:40:58.410Z,55.20
2018-01-15T21:43:26.480Z,55.20
2018-01-15T21:45:54.544Z,54.90
2018-01-15T21:48:22.619Z,55.10
2018-01-15T21:50:50.677Z,55.00
2018-01-15T21:53:18.747Z,55.30
2018-01-15T21:55:47.011Z,55.20
2018-01-15T21:58:15.896Z,54.90
2018-01-15T22:00:44.723Z,54.50
2018-01-15T22:03:12.787Z,54.50
2018-01-15T22:05:40.847Z,54.50
2018-01-15T22:08:08.913Z,54.40
2018-01-15T22:10:37.043Z,54.50
2018-01-15T22:13:05.102Z,54.60
2018-01-15T22:15:33.161Z,54.20
2018-01-15T22:18:01.239Z,54.50
2018-01-15T22:20:29.298Z,56.00
2018-01-15T22:22:57.353Z,54.50
2018-01-15T22:25:25.430Z,54.80
2018-01-15T22:27:53.495Z,55.00
2018-01-15T22:30:21.562Z,54.80
2018-01-15T22:32:49.618Z,54.30
2018-01-15T22:35:17.695Z,54.10
2018-01-15T22:37:45.759Z,54.40
2018-01-15T22:40:13.840Z,53.80
2018-01-15T22:42:41.895Z,54.00
2018-01-15T22:45:10.017Z,54.20
2018-01-15T22:47:38.074Z,54.80
2018-01-15T22:50:06.145Z,55.10
2018-01-15T22:52:34.685Z,55.80
2018-01-15T22:55:02.764Z,55.90
2018-01-15T22:57:30.823Z,56.70
2018-01-15T22:59:58.890Z,56.80
2018-01-15T23:02:27.726Z,57.40
2018-01-15T23:04:55.788Z,57.40
2018-01-15T23:07:23.861Z,57.20
2018-01-15T23:09:51.926Z,57.80
2018-01-15T23:12:19.996Z,58.20
2018-01-15T23:14:48.052Z,58.40
2018-01-15T23:17:16.124Z,59.40
2018-01-15T23:19:44.238Z,59.50
2018-01-15T23:22:12.251Z,60.10
2018-01-15T23:24:40.305Z,60.10
2018-01-15T23:27:09.143Z,60.10
2018-01-15T23:29:37.201Z,60.10
2018-01-15T23:32:05.272Z,60.10
2018-01-15T23:34:33.326Z,60.40
2018-01-15T23:37:01.385Z,61.00
2018-01-15T23:39:29.447Z,62.30
2018-01-15T23:41:58.282Z,67.00
2018-01-15T23:44:26.342Z,67.10
2018-01-15T23:46:54.415Z,67.70
2018-01-15T23:49:22.483Z,69.60
2018-01-15T23:51:50.546Z,70.00
2018-01-15T23:54:33.517Z,72.10
2018-01-15T23:57:01.582Z,70.60
2018-01-15T23:59:29.647Z,71.60
